Time;durP1;ratioP1;P1;durP2;ratioP2;P2;SDS_P1;SDS_P2;PMS_P1;PMS_P2;Temp;Humidity;BMP_temperature;BMP_pressure;BME280_temperature;BME280_humidity;BME280_pressure;Samples;Min_cycle;Max_cycle;Signal;HPM_P1;HPM_P2
2023/08/28 03:00:18;;;;;;;;;;;12.80;99.90;;;;;;6033862;23;20272;-78
2023/08/28 03:02:44;;;;;;;;;;;12.80;99.90;;;;;;5006829;28;19948;-79
2023/08/28 03:05:10;;;;;;;;;;;12.80;99.90;;;;;;4976452;28;19929;-80
2023/08/28 03:07:37;;;;;;;;;;;12.70;99.90;;;;;;4976482;28;20319;-79
2023/08/28 03:10:03;;;;;;;;;;;12.70;99.90;;;;;;4975631;28;20248;-80
2023/08/28 03:12:28;;;;;;;;;;;12.60;99.90;;;;;;5007656;28;20013;-79
2023/08/28 03:14:54;;;;;;;;;;;12.60;99.90;;;;;;5007724;28;19926;-80
2023/08/28 03:17:19;;;;;;;;;;;12.60;99.90;;;;;;4974551;28;19928;-80
2023/08/28 03:19:45;;;;;;;;;;;12.60;99.90;;;;;;5007941;28;20371;-81
2023/08/28 03:22:10;;;;;;;;;;;12.50;99.90;;;;;;4958758;28;20284;-77
2023/08/28 03:24:36;;;;;;;;;;;12.50;99.90;;;;;;4958223;28;19922;-78
2023/08/28 03:27:01;;;;;;;;;;;12.50;99.90;;;;;;4974822;28;19922;-81
2023/08/28 03:29:27;;;;;;;;;;;12.50;99.90;;;;;;4975281;28;19926;-77
2023/08/28 03:31:52;;;;;;;;;;;12.40;99.90;;;;;;4976199;28;19928;-79
2023/08/28 03:34:18;;;;;;;;;;;12.40;99.90;;;;;;4976280;28;19926;-80
2023/08/28 03:36:43;;;;;;;;;;;12.40;99.90;;;;;;4974873;28;19930;-76
2023/08/28 03:39:09;;;;;;;;;;;12.40;99.90;;;;;;4958599;28;19922;-79
2023/08/28 03:41:34;;;;;;;;;;;12.30;99.90;;;;;;4974946;28;19922;-80
2023/08/28 03:44:00;;;;;;;;;;;12.30;99.90;;;;;;4974890;28;19922;-78
2023/08/28 03:46:26;;;;;;;;;;;12.30;99.90;;;;;;4974436;28;19925;-75
2023/08/28 03:48:52;;;;;;;;;;;12.30;99.90;;;;;;4974567;28;19922;-81
2023/08/28 03:51:17;;;;;;;;;;;12.20;99.90;;;;;;4975496;28;19945;-77
2023/08/28 03:53:43;;;;;;;;;;;12.20;99.90;;;;;;4974601;28;20396;-81
2023/08/28 03:56:09;;;;;;;;;;;12.20;99.90;;;;;;4958601;28;19933;-77
2023/08/28 03:58:34;;;;;;;;;;;12.20;99.90;;;;;;4975468;28;19922;-79
2023/08/28 04:01:00;;;;;;;;;;;12.20;99.90;;;;;;4974361;28;19922;-76
2023/08/28 04:03:25;;;;;;;;;;;12.20;99.90;;;;;;4975587;28;20372;-81
2023/08/28 04:05:52;;;;;;;;;;;12.20;99.90;;;;;;4974096;28;20388;-80
2023/08/28 04:08:19;;;;;;;;;;;12.20;99.90;;;;;;4974375;28;20290;-80
2023/08/28 04:10:44;;;;;;;;;;;12.10;99.90;;;;;;4975604;28;19921;-77
2023/08/28 04:13:11;;;;;;;;;;;12.10;99.90;;;;;;4974481;28;19922;-81
2023/08/28 04:15:37;;;;;;;;;;;12.10;99.90;;;;;;4974009;28;19968;-81
2023/08/28 04:18:04;;;;;;;;;;;12.00;99.90;;;;;;4974061;28;19979;-79
2023/08/28 04:20:30;;;;;;;;;;;12.00;99.90;;;;;;4973987;28;19973;-78
2023/08/28 04:22:56;;;;;;;;;;;11.90;99.90;;;;;;4973897;28;19926;-80
2023/08/28 04:25:21;;;;;;;;;;;11.90;99.90;;;;;;4973952;28;20013;-78
2023/08/28 04:27:47;;;;;;;;;;;11.90;99.90;;;;;;4975329;28;19947;-79
2023/08/28 04:30:12;;;;;;;;;;;11.90;99.90;;;;;;4973755;28;20299;-78
2023/08/28 04:32:38;;;;;;;;;;;11.90;99.90;;;;;;4974977;28;19922;-80
2023/08/28 04:35:03;;;;;;;;;;;11.90;99.90;;;;;;4973504;28;20458;-80
2023/08/28 04:37:29;;;;;;;;;;;11.80;99.90;;;;;;4974050;28;19922;-82
2023/08/28 04:39:55;;;;;;;;;;;11.80;99.90;;;;;;4973685;28;20295;-78
2023/08/28 04:42:20;;;;;;;;;;;11.80;99.90;;;;;;4973329;28;19922;-77
2023/08/28 04:44:46;;;;;;;;;;;11.80;99.90;;;;;;4973696;28;19923;-81
2023/08/28 04:47:13;;;;;;;;;;;11.80;99.90;;;;;;4973506;28;19942;-81
2023/08/28 04:49:38;;;;;;;;;;;11.80;99.90;;;;;;4975695;28;19929;-78
2023/08/28 04:52:04;;;;;;;;;;;11.80;99.90;;;;;;4975142;28;20009;-79
2023/08/28 04:54:30;;;;;;;;;;;11.80;99.90;;;;;;4973585;28;20375;-80
2023/08/28 04:56:56;;;;;;;;;;;11.80;99.90;;;;;;4973601;28;19933;-78
2023/08/28 04:59:22;;;;;;;;;;;11.80;99.90;;;;;;4974739;28;20380;-78
2023/08/28 05:01:48;;;;;;;;;;;11.80;99.90;;;;;;4974739;28;19942;-77
2023/08/28 05:04:13;;;;;;;;;;;11.80;99.90;;;;;;4973439;28;19930;-80
2023/08/28 05:06:40;;;;;;;;;;;11.90;99.90;;;;;;4973123;28;20397;-78
2023/08/28 05:09:06;;;;;;;;;;;11.90;99.90;;;;;;4973754;28;19973;-81
2023/08/28 05:11:31;;;;;;;;;;;11.90;99.90;;;;;;4957334;28;19926;-79
2023/08/28 05:13:57;;;;;;;;;;;11.90;99.90;;;;;;4972464;28;19933;-82
2023/08/28 05:16:23;;;;;;;;;;;11.90;99.90;;;;;;4975052;28;19922;-79
2023/08/28 05:18:49;;;;;;;;;;;11.90;99.90;;;;;;5006535;28;19931;-80
2023/08/28 05:21:14;;;;;;;;;;;11.90;99.90;;;;;;5005928;28;20302;-79
2023/08/28 05:23:40;;;;;;;;;;;12.00;99.90;;;;;;5006814;28;19922;-79
2023/08/28 05:26:05;;;;;;;;;;;12.00;99.90;;;;;;4973761;28;19926;-83
2023/08/28 05:28:34;;;;;;;;;;;12.00;99.90;;;;;;5006309;28;19922;-81
2023/08/28 05:31:00;;;;;;;;;;;12.00;99.90;;;;;;4973256;28;19965;-79
2023/08/28 05:33:26;;;;;;;;;;;12.00;99.90;;;;;;4974048;28;19972;-78
2023/08/28 05:35:51;;;;;;;;;;;12.00;99.90;;;;;;5006603;28;19929;-81
2023/08/28 05:38:17;;;;;;;;;;;12.10;99.90;;;;;;4974621;28;20256;-79
2023/08/28 05:40:43;;;;;;;;;;;12.10;99.90;;;;;;5009033;28;19926;-78
2023/08/28 05:43:08;;;;;;;;;;;12.10;99.90;;;;;;4976960;28;20387;-79
2023/08/28 05:45:34;;;;;;;;;;;12.20;99.90;;;;;;5009523;28;20307;-82
2023/08/28 05:47:59;;;;;;;;;;;12.20;99.90;;;;;;4961042;28;19993;-78
2023/08/28 05:50:25;;;;;;;;;;;12.30;99.90;;;;;;4977859;28;19925;-80
2023/08/28 05:52:51;;;;;;;;;;;12.30;99.90;;;;;;5009591;28;19922;-77
2023/08/28 05:55:16;;;;;;;;;;;12.40;99.90;;;;;;4977980;28;20017;-80
2023/08/28 05:57:42;;;;;;;;;;;12.50;99.90;;;;;;5009676;28;20371;-77
2023/08/28 06:00:13;;;;;;;;;;;12.60;99.90;;;;;;4960450;28;20357;-81
2023/08/28 06:02:39;;;;;;;;;;;12.70;99.90;;;;;;5008902;28;19922;-78
2023/08/28 06:05:04;;;;;;;;;;;12.80;99.90;;;;;;5009200;28;20010;-78
2023/08/28 06:07:30;;;;;;;;;;;12.90;99.90;;;;;;5009702;28;19965;-79
2023/08/28 06:09:56;;;;;;;;;;;12.90;99.90;;;;;;4976318;28;19929;-78
2023/08/28 06:12:21;;;;;;;;;;;13.00;99.90;;;;;;5008944;28;19922;-77
2023/08/28 06:14:47;;;;;;;;;;;13.10;99.90;;;;;;5008647;28;19980;-77
2023/08/28 06:17:13;;;;;;;;;;;13.20;99.90;;;;;;4960097;28;19922;-77
2023/08/28 06:19:38;;;;;;;;;;;13.30;99.90;;;;;;5009352;28;20030;-81
2023/08/28 06:22:07;;;;;;;;;;;13.30;99.90;;;;;;5008590;28;19972;-81
2023/08/28 06:24:32;;;;;;;;;;;13.40;99.90;;;;;;4976305;28;20342;-78
2023/08/28 06:26:58;;;;;;;;;;;13.40;99.90;;;;;;5008657;28;19926;-77
2023/08/28 06:29:24;;;;;;;;;;;13.40;99.90;;;;;;4959769;28;19922;-79
2023/08/28 06:31:49;;;;;;;;;;;13.50;99.90;;;;;;5008325;28;19926;-78
2023/08/28 06:34:15;;;;;;;;;;;13.60;99.90;;;;;;5008996;28;19934;-77
2023/08/28 06:36:41;;;;;;;;;;;13.60;99.90;;;;;;5008744;28;19929;-78
2023/08/28 06:39:07;;;;;;;;;;;13.60;99.90;;;;;;5008565;28;19965;-79
2023/08/28 06:41:33;;;;;;;;;;;13.70;99.90;;;;;;5008342;28;19922;-77
2023/08/28 06:44:00;;;;;;;;;;;13.80;99.90;;;;;;4975313;28;19926;-76
2023/08/28 06:46:25;;;;;;;;;;;13.80;99.90;;;;;;4972595;28;19933;-78
2023/08/28 06:48:52;;;;;;;;;;;13.90;99.90;;;;;;4975988;28;20020;-79
2023/08/28 06:51:19;;;;;;;;;;;14.00;99.90;;;;;;4976818;28;19928;-78
2023/08/28 06:53:45;;;;;;;;;;;14.00;99.90;;;;;;4977082;28;19965;-79
2023/08/28 06:56:10;;;;;;;;;;;14.00;99.90;;;;;;4976741;28;19922;-79
2023/08/28 06:58:36;;;;;;;;;;;14.10;99.90;;;;;;4976993;28;19929;-82
2023/08/28 07:01:02;;;;;;;;;;;14.10;99.90;;;;;;4959577;28;19922;-78
2023/08/28 07:03:28;;;;;;;;;;;14.20;99.90;;;;;;4976579;28;19922;-77
2023/08/28 07:05:53;;;;;;;;;;;14.20;99.90;;;;;;4977094;28;19922;-81
2023/08/28 07:08:19;;;;;;;;;;;14.30;99.90;;;;;;4975240;28;19922;-78
2023/08/28 07:10:45;;;;;;;;;;;14.40;99.90;;;;;;4977038;28;20180;-78
2023/08/28 07:13:10;;;;;;;;;;;14.50;99.90;;;;;;4976633;28;19922;-80
2023/08/28 07:15:36;;;;;;;;;;;14.60;99.90;;;;;;4975022;28;20024;-78
2023/08/28 07:18:03;;;;;;;;;;;14.70;99.90;;;;;;4976535;28;19922;-77
2023/08/28 07:20:28;;;;;;;;;;;14.80;99.90;;;;;;4975645;28;20350;-76
2023/08/28 07:22:54;;;;;;;;;;;14.90;99.90;;;;;;4976226;28;19949;-77
2023/08/28 07:25:22;;;;;;;;;;;14.90;99.90;;;;;;4974986;28;19968;-78
2023/08/28 07:27:51;;;;;;;;;;;15.00;99.90;;;;;;4975242;28;19929;-78
2023/08/28 07:30:17;;;;;;;;;;;15.10;99.90;;;;;;4975999;28;19922;-75
2023/08/28 07:32:42;;;;;;;;;;;15.10;99.90;;;;;;4958623;28;20343;-79
2023/08/28 07:35:08;;;;;;;;;;;15.20;99.90;;;;;;4974799;28;19933;-76
2023/08/28 07:37:34;;;;;;;;;;;15.20;99.90;;;;;;4976064;28;19924;-81
2023/08/28 07:40:00;;;;;;;;;;;15.20;99.90;;;;;;4975927;28;19972;-80
2023/08/28 07:42:26;;;;;;;;;;;15.30;99.90;;;;;;4976126;28;20009;-79
2023/08/28 07:44:51;;;;;;;;;;;15.40;99.90;;;;;;4975986;28;19921;-79
2023/08/28 07:47:18;;;;;;;;;;;15.50;99.90;;;;;;4975096;28;19922;-77
2023/08/28 07:49:43;;;;;;;;;;;15.50;99.90;;;;;;4974812;28;20013;-77
2023/08/28 07:52:09;;;;;;;;;;;15.60;99.90;;;;;;4975034;28;20002;-80
2023/08/28 07:54:35;;;;;;;;;;;15.60;99.90;;;;;;5006982;28;20402;-79
2023/08/28 07:57:00;;;;;;;;;;;15.70;99.90;;;;;;4975867;28;19922;-77
2023/08/28 07:59:29;;;;;;;;;;;15.80;99.90;;;;;;4974683;28;20308;-75
2023/08/28 08:01:55;;;;;;;;;;;15.80;99.90;;;;;;4975221;28;20001;-82
2023/08/28 08:04:20;;;;;;;;;;;15.90;99.90;;;;;;4975320;28;20005;-75
2023/08/28 08:06:46;;;;;;;;;;;15.90;99.90;;;;;;5007102;28;19929;-76
2023/08/28 08:09:12;;;;;;;;;;;16.00;99.90;;;;;;5006702;28;20399;-82
2023/08/28 08:11:37;;;;;;;;;;;16.10;99.90;;;;;;5007471;28;19992;-80
2023/08/28 08:14:03;;;;;;;;;;;16.10;99.90;;;;;;5006576;28;19926;-81
2023/08/28 08:16:29;;;;;;;;;;;16.10;99.90;;;;;;4974399;28;20014;-78
2023/08/28 08:18:54;;;;;;;;;;;16.10;99.90;;;;;;5006800;28;19969;-82
2023/08/28 08:21:20;;;;;;;;;;;16.20;99.90;;;;;;4973901;28;19922;-77
2023/08/28 08:23:47;;;;;;;;;;;16.30;99.90;;;;;;4974246;28;19965;-79
2023/08/28 08:26:13;;;;;;;;;;;16.40;99.90;;;;;;4975059;28;19929;-79
2023/08/28 08:28:39;;;;;;;;;;;16.50;99.90;;;;;;4975387;28;19922;-77
2023/08/28 08:31:05;;;;;;;;;;;16.60;99.90;;;;;;4975151;28;19976;-76
2023/08/28 08:33:31;;;;;;;;;;;16.60;99.90;;;;;;5006270;28;19922;-77
2023/08/28 08:35:56;;;;;;;;;;;16.60;99.90;;;;;;4973795;28;19997;-78
2023/08/28 08:38:22;;;;;;;;;;;16.80;99.90;;;;;;4975011;28;19929;-77
2023/08/28 08:40:50;;;;;;;;;;;16.80;99.90;;;;;;4975204;28;19945;-75
2023/08/28 08:43:16;;;;;;;;;;;16.80;99.90;;;;;;4957530;28;19926;-80
2023/08/28 08:45:44;;;;;;;;;;;16.70;99.90;;;;;;4975207;28;19922;-80
2023/08/28 08:48:12;;;;;;;;;;;16.70;99.90;;;;;;5006573;28;19928;-76
2023/08/28 08:50:37;;;;;;;;;;;16.80;99.90;;;;;;5006454;28;19926;-80
2023/08/28 08:53:09;;;;;;;;;;;16.90;99.90;;;;;;4975141;28;19922;-79
2023/08/28 08:55:45;;;;;;;;;;;17.00;99.90;;;;;;4975094;28;20013;-79
2023/08/28 08:58:13;;;;;;;;;;;17.20;99.90;;;;;;4975753;28;20249;-78
2023/08/28 09:00:39;;;;;;;;;;;17.30;99.90;;;;;;4974594;28;19922;-76
2023/08/28 09:03:05;;;;;;;;;;;17.40;99.90;;;;;;4975058;28;19922;-80
2023/08/28 09:05:31;;;;;;;;;;;17.50;99.90;;;;;;4975018;28;20005;-79
2023/08/28 09:07:59;;;;;;;;;;;17.50;99.90;;;;;;4975041;28;20397;-79
2023/08/28 09:10:25;;;;;;;;;;;17.50;99.90;;;;;;4974894;28;20012;-78
2023/08/28 09:12:51;;;;;;;;;;;17.40;99.90;;;;;;4974922;28;20009;-78
2023/08/28 09:15:17;;;;;;;;;;;17.40;99.90;;;;;;5006894;28;19926;-78
2023/08/28 09:17:42;;;;;;;;;;;17.50;99.90;;;;;;5010359;28;19930;-79
2023/08/28 09:20:18;;;;;;;;;;;17.60;99.90;;;;;;4978596;28;20005;-76
2023/08/28 09:22:47;;;;;;;;;;;17.50;99.90;;;;;;4978348;28;19922;-78
2023/08/28 09:25:14;;;;;;;;;;;17.60;99.90;;;;;;4979073;28;19929;-78
2023/08/28 09:27:44;;;;;;;;;;;17.70;99.90;;;;;;5010978;28;19922;-76
2023/08/28 09:30:26;;;;;;;;;;;17.80;99.90;;;;;;4978194;28;19931;-80
2023/08/28 09:32:52;;;;;;;;;;;17.90;99.90;;;;;;5009623;28;19922;-77
2023/08/28 09:35:20;;;;;;;;;;;18.10;99.90;;;;;;4976917;28;19926;-79
2023/08/28 09:37:55;;;;;;;;;;;18.20;99.90;;;;;;4978898;28;19962;-78
2023/08/28 09:40:28;;;;;;;;;;;18.40;99.90;;;;;;5009376;28;20014;-77
2023/08/28 09:42:54;;;;;;;;;;;18.50;99.90;;;;;;4978328;28;19922;-77
2023/08/28 09:45:19;;;;;;;;;;;18.60;99.90;;;;;;5009641;28;20479;-76
2023/08/28 09:47:45;;;;;;;;;;;18.60;99.90;;;;;;4978320;28;19926;-78
2023/08/28 09:50:11;;;;;;;;;;;18.50;99.90;;;;;;4976758;28;20005;-81
2023/08/28 09:52:36;;;;;;;;;;;18.60;99.90;;;;;;4977993;28;19929;-77
2023/08/28 09:55:05;;;;;;;;;;;18.70;99.90;;;;;;4978075;28;19933;-79
2023/08/28 09:57:33;;;;;;;;;;;18.90;99.90;;;;;;4977941;28;19945;-78
2023/08/28 09:59:59;;;;;;;;;;;19.00;99.90;;;;;;4977807;28;19965;-81
2023/08/28 10:02:25;;;;;;;;;;;19.10;99.90;;;;;;5009488;28;19922;-79
2023/08/28 10:04:52;;;;;;;;;;;19.10;99.90;;;;;;4977754;28;19922;-79
2023/08/28 10:07:21;;;;;;;;;;;18.90;99.90;;;;;;4977359;28;20378;-77
2023/08/28 10:09:47;;;;;;;;;;;18.70;99.90;;;;;;4976548;28;20008;-76
2023/08/28 10:12:13;;;;;;;;;;;18.40;99.90;;;;;;4977618;28;19922;-78
2023/08/28 10:14:39;;;;;;;;;;;18.20;99.90;;;;;;5008913;28;20292;-80
2023/08/28 10:17:05;;;;;;;;;;;17.90;99.90;;;;;;5008650;28;19929;-77
2023/08/28 10:19:42;;;;;;;;;;;17.80;99.90;;;;;;5008847;28;19922;-77
2023/08/28 10:22:08;;;;;;;;;;;17.60;99.90;;;;;;4977499;28;19922;-77
2023/08/28 10:24:39;;;;;;;;;;;17.40;99.90;;;;;;4976317;28;20006;-76
2023/08/28 10:27:05;;;;;;;;;;;17.30;99.90;;;;;;4977768;28;19945;-80
2023/08/28 10:29:32;;;;;;;;;;;17.10;99.90;;;;;;4977384;28;19929;-81
2023/08/28 10:31:58;;;;;;;;;;;17.10;99.90;;;;;;4977201;28;19945;-78
2023/08/28 10:34:25;;;;;;;;;;;17.00;99.90;;;;;;4977265;28;19976;-76
2023/08/28 10:36:51;;;;;;;;;;;17.00;99.90;;;;;;4977323;28;19985;-77
2023/08/28 10:39:20;;;;;;;;;;;17.00;99.90;;;;;;5008295;28;20418;-79
2023/08/28 10:41:46;;;;;;;;;;;17.10;99.90;;;;;;4977157;28;19929;-80
2023/08/28 10:44:12;;;;;;;;;;;17.10;99.90;;;;;;5008332;28;20388;-78
2023/08/28 10:46:38;;;;;;;;;;;17.20;99.90;;;;;;4977188;28;19966;-79
2023/08/28 10:49:05;;;;;;;;;;;17.20;99.90;;;;;;4976868;28;19973;-79
2023/08/28 10:51:32;;;;;;;;;;;17.20;99.90;;;;;;4976492;28;20380;-78
2023/08/28 10:54:07;;;;;;;;;;;17.30;99.90;;;;;;4975973;28;20017;-77
2023/08/28 10:56:34;;;;;;;;;;;17.40;99.90;;;;;;4976066;28;20316;-78
2023/08/28 10:59:26;;;;;;;;;;;17.40;99.90;;;;;;4976925;28;20310;-77
2023/08/28 11:01:54;;;;;;;;;;;17.50;99.90;;;;;;4973703;28;19926;-76
2023/08/28 11:04:20;;;;;;;;;;;17.50;99.90;;;;;;4976495;28;19988;-78
2023/08/28 11:06:46;;;;;;;;;;;17.50;99.90;;;;;;4975302;28;19965;-76
2023/08/28 11:09:41;;;;;;;;;;;17.50;99.90;;;;;;4975236;28;19922;-78
2023/08/28 11:12:10;;;;;;;;;;;17.60;99.90;;;;;;4958918;28;19922;-79
2023/08/28 11:14:39;;;;;;;;;;;17.60;99.90;;;;;;4976587;28;20025;-76
2023/08/28 11:17:10;;;;;;;;;;;17.60;99.90;;;;;;4976294;28;19922;-79
2023/08/28 11:19:54;;;;;;;;;;;17.60;99.90;;;;;;4976269;28;19930;-77
2023/08/28 11:22:29;;;;;;;;;;;17.60;99.90;;;;;;5007737;28;19977;-78
2023/08/28 11:24:55;;;;;;;;;;;17.60;99.90;;;;;;4974935;28;19965;-79
2023/08/28 11:27:34;;;;;;;;;;;17.70;99.90;;;;;;4975180;28;20012;-78
2023/08/28 11:30:04;;;;;;;;;;;17.80;99.90;;;;;;4974817;28;19922;-79
2023/08/28 11:32:30;;;;;;;;;;;17.80;99.90;;;;;;4974730;28;19937;-75
2023/08/28 11:35:08;;;;;;;;;;;17.90;99.90;;;;;;4974335;28;19981;-79
2023/08/28 11:37:35;;;;;;;;;;;17.90;99.90;;;;;;4975045;28;20005;-78
2023/08/28 11:40:05;;;;;;;;;;;17.90;99.90;;;;;;4975841;28;19922;-80
2023/08/28 11:42:31;;;;;;;;;;;18.00;99.90;;;;;;4975620;28;19930;-76
2023/08/28 11:44:56;;;;;;;;;;;18.00;99.90;;;;;;4974512;28;20013;-78
2023/08/28 11:47:22;;;;;;;;;;;18.00;99.90;;;;;;4975611;28;19922;-78
2023/08/28 11:49:48;;;;;;;;;;;18.10;99.90;;;;;;4975209;28;20380;-80
2023/08/28 11:52:17;;;;;;;;;;;18.20;99.90;;;;;;4973896;28;19928;-79
2023/08/28 11:54:42;;;;;;;;;;;18.30;99.90;;;;;;4975767;28;19988;-80
2023/08/28 11:57:08;;;;;;;;;;;18.60;99.90;;;;;;4974435;28;20385;-77
2023/08/28 11:59:34;;;;;;;;;;;18.90;99.90;;;;;;4975190;28;20331;-76
2023/08/28 12:02:00;;;;;;;;;;;19.20;99.90;;;;;;4975104;28;19922;-76
2023/08/28 12:04:25;;;;;;;;;;;19.40;99.90;;;;;;4975455;28;19926;-78
2023/08/28 12:06:51;;;;;;;;;;;19.60;99.90;;;;;;4958428;28;20364;-78
2023/08/28 12:09:17;;;;;;;;;;;19.60;99.90;;;;;;4975219;28;20376;-81
2023/08/28 12:11:42;;;;;;;;;;;19.60;99.90;;;;;;4975215;28;19926;-79
2023/08/28 12:14:15;;;;;;;;;;;19.50;99.90;;;;;;4974729;28;19933;-76
2023/08/28 12:16:41;;;;;;;;;;;19.30;99.90;;;;;;4975465;28;19977;-79
2023/08/28 12:19:06;;;;;;;;;;;19.20;99.90;;;;;;4973179;28;20016;-78
2023/08/28 12:21:34;;;;;;;;;;;19.10;99.90;;;;;;4975456;28;19926;-78
2023/08/28 12:23:59;;;;;;;;;;;19.00;99.90;;;;;;4975210;28;19922;-77
2023/08/28 12:26:25;;;;;;;;;;;18.90;99.90;;;;;;4973808;28;19933;-79
2023/08/28 12:28:52;;;;;;;;;;;18.90;99.90;;;;;;4973977;28;19926;-78
2023/08/28 12:31:27;;;;;;;;;;;18.90;99.90;;;;;;4973602;28;19929;-77
2023/08/28 12:33:54;;;;;;;;;;;18.80;99.90;;;;;;4973723;28;20391;-77
2023/08/28 12:36:19;;;;;;;;;;;18.80;99.90;;;;;;4973982;28;19928;-80
2023/08/28 12:38:49;;;;;;;;;;;18.70;99.90;;;;;;4973628;28;20013;-77
2023/08/28 12:41:17;;;;;;;;;;;18.70;99.90;;;;;;4975466;28;19929;-79
2023/08/28 12:43:43;;;;;;;;;;;18.70;99.90;;;;;;4974308;28;20343;-77
2023/08/28 12:46:09;;;;;;;;;;;18.80;99.90;;;;;;4975841;28;19922;-80
2023/08/28 12:48:34;;;;;;;;;;;18.80;99.90;;;;;;4974967;28;20000;-77
2023/08/28 12:51:00;;;;;;;;;;;18.80;99.90;;;;;;4979096;28;20348;-77
2023/08/28 12:53:26;;;;;;;;;;;18.80;99.90;;;;;;4977479;28;19994;-78
2023/08/28 12:55:51;;;;;;;;;;;18.80;99.90;;;;;;4977792;28;19933;-77
2023/08/28 12:58:17;;;;;;;;;;;18.80;99.90;;;;;;4977350;28;19992;-78
2023/08/28 13:00:43;;;;;;;;;;;18.90;99.90;;;;;;4978710;28;19922;-77
2023/08/28 13:03:09;;;;;;;;;;;19.10;99.90;;;;;;4977477;28;19976;-79
2023/08/28 13:05:35;;;;;;;;;;;19.40;99.90;;;;;;4961343;28;19965;-76
2023/08/28 13:08:00;;;;;;;;;;;19.70;99.90;;;;;;4977334;28;19922;-79
2023/08/28 13:10:26;;;;;;;;;;;20.00;99.90;;;;;;4978755;28;20004;-79
2023/08/28 13:12:51;;;;;;;;;;;20.10;99.90;;;;;;4979097;28;19922;-79
2023/08/28 13:15:17;;;;;;;;;;;20.20;99.90;;;;;;4977226;28;19926;-78
2023/08/28 13:17:43;;;;;;;;;;;20.50;99.90;;;;;;4978374;28;20380;-78
2023/08/28 13:20:10;;;;;;;;;;;20.70;99.90;;;;;;4977121;28;19926;-78
2023/08/28 13:22:36;;;;;;;;;;;20.90;99.90;;;;;;4977132;28;20392;-79
2023/08/28 13:25:03;;;;;;;;;;;20.80;99.90;;;;;;4978505;28;19929;-78
2023/08/28 13:27:28;;;;;;;;;;;20.70;99.90;;;;;;4977371;28;19926;-76
2023/08/28 13:29:54;;;;;;;;;;;20.60;99.90;;;;;;4978115;28;20348;-77
2023/08/28 13:32:20;;;;;;;;;;;20.40;99.90;;;;;;4978368;28;19929;-78
2023/08/28 13:34:45;;;;;;;;;;;20.20;99.90;;;;;;4978290;28;19930;-78
2023/08/28 13:37:11;;;;;;;;;;;20.00;99.90;;;;;;4978290;28;19922;-77
2023/08/28 13:39:38;;;;;;;;;;;19.90;99.90;;;;;;4978358;28;20005;-77
2023/08/28 13:42:04;;;;;;;;;;;19.70;99.90;;;;;;4978417;28;19922;-77
2023/08/28 13:44:30;;;;;;;;;;;19.60;99.90;;;;;;4978101;28;19922;-77
2023/08/28 13:46:55;;;;;;;;;;;19.70;99.90;;;;;;4977087;28;19976;-79
2023/08/28 13:49:21;;;;;;;;;;;19.80;99.90;;;;;;4976592;28;20319;-80
2023/08/28 13:51:49;;;;;;;;;;;19.90;99.90;;;;;;4978084;28;19922;-75
2023/08/28 13:54:15;;;;;;;;;;;19.90;99.90;;;;;;4977939;28;19941;-79
2023/08/28 13:56:40;;;;;;;;;;;19.80;99.90;;;;;;4976640;28;20303;-77
2023/08/28 13:59:06;;;;;;;;;;;19.70;99.90;;;;;;4976705;28;19926;-77
2023/08/28 14:01:32;;;;;;;;;;;19.60;99.90;;;;;;4977020;28;19929;-78
2023/08/28 14:03:57;;;;;;;;;;;19.50;99.90;;;;;;4977655;28;19928;-78
2023/08/28 14:06:23;;;;;;;;;;;19.40;99.90;;;;;;4978211;28;20012;-79
2023/08/28 14:08:49;;;;;;;;;;;19.40;99.90;;;;;;4977915;28;19928;-77
2023/08/28 14:11:15;;;;;;;;;;;19.60;99.90;;;;;;4976505;28;19929;-78
2023/08/28 14:13:41;;;;;;;;;;;19.70;99.90;;;;;;4960856;28;19922;-77
2023/08/28 14:16:07;;;;;;;;;;;20.00;99.90;;;;;;4977691;28;19937;-79
2023/08/28 14:18:33;;;;;;;;;;;20.30;99.90;;;;;;4977594;28;19922;-78
2023/08/28 14:20:59;;;;;;;;;;;20.50;99.90;;;;;;4977504;28;20303;-78
2023/08/28 14:23:24;;;;;;;;;;;20.60;99.90;;;;;;4976022;28;20060;-78
2023/08/28 14:25:50;;;;;;;;;;;20.80;99.90;;;;;;4977700;28;20287;-76
2023/08/28 14:28:16;;;;;;;;;;;20.80;99.90;;;;;;4977450;28;19926;-78
2023/08/28 14:30:42;;;;;;;;;;;21.00;99.90;;;;;;4976285;28;19929;-76
2023/08/28 14:33:08;;;;;;;;;;;21.00;99.90;;;;;;4976925;28;19929;-78
2023/08/28 14:35:34;;;;;;;;;;;21.00;99.90;;;;;;4976013;28;19926;-79
2023/08/28 14:38:00;;;;;;;;;;;20.90;99.90;;;;;;4975712;28;19984;-77
2023/08/28 14:40:26;;;;;;;;;;;20.90;99.90;;;;;;4976256;28;20017;-78
2023/08/28 14:42:51;;;;;;;;;;;20.70;99.90;;;;;;4975580;28;19922;-77
2023/08/28 14:45:17;;;;;;;;;;;20.50;99.90;;;;;;4976770;28;19922;-77
2023/08/28 14:47:42;;;;;;;;;;;20.40;99.90;;;;;;4975530;28;19973;-80
2023/08/28 14:50:08;;;;;;;;;;;20.20;99.90;;;;;;4976947;28;19969;-78
2023/08/28 14:52:34;;;;;;;;;;;20.20;99.90;;;;;;4975394;28;19929;-77
2023/08/28 14:55:00;;;;;;;;;;;20.40;99.90;;;;;;4976631;28;19928;-76
2023/08/28 14:57:25;;;;;;;;;;;20.70;99.90;;;;;;4976775;28;19926;-78
2023/08/28 14:59:54;;;;;;;;;;;20.80;99.90;;;;;;4959260;28;20036;-76
2023/08/28 15:02:23;;;;;;;;;;;20.80;99.90;;;;;;4976489;28;19922;-77
2023/08/28 15:04:48;;;;;;;;;;;20.70;99.90;;;;;;4975575;28;19922;-77
2023/08/28 15:07:14;;;;;;;;;;;20.60;99.90;;;;;;4959410;28;19922;-77
2023/08/28 15:09:42;;;;;;;;;;;20.50;99.90;;;;;;4976382;28;20493;-78
2023/08/28 15:12:08;;;;;;;;;;;20.30;99.90;;;;;;4975347;28;20339;-78
2023/08/28 15:14:34;;;;;;;;;;;20.20;99.90;;;;;;4977025;28;20028;-79
2023/08/28 15:16:59;;;;;;;;;;;20.00;99.90;;;;;;4976492;28;19961;-77
2023/08/28 15:19:28;;;;;;;;;;;20.00;99.90;;;;;;4976007;28;19922;-79
2023/08/28 15:21:53;;;;;;;;;;;20.00;99.90;;;;;;4974721;28;19976;-80
2023/08/28 15:24:19;;;;;;;;;;;20.00;99.90;;;;;;4976245;28;19922;-77
2023/08/28 15:26:45;;;;;;;;;;;20.10;99.90;;;;;;4975975;28;19977;-80
2023/08/28 15:29:10;;;;;;;;;;;20.20;99.90;;;;;;4974638;28;19929;-77
2023/08/28 15:31:36;;;;;;;;;;;20.30;99.90;;;;;;4975942;28;19926;-78
2023/08/28 15:34:03;;;;;;;;;;;20.40;99.90;;;;;;4974659;28;19922;-78
2023/08/28 15:36:28;;;;;;;;;;;20.30;99.90;;;;;;4976283;28;19922;-79
2023/08/28 15:38:54;;;;;;;;;;;20.10;99.90;;;;;;4958912;28;19976;-79
2023/08/28 15:41:20;;;;;;;;;;;20.00;99.90;;;;;;4976399;28;19989;-80
2023/08/28 15:43:46;;;;;;;;;;;19.80;99.90;;;;;;4975020;28;19949;-77
2023/08/28 15:46:12;;;;;;;;;;;19.60;99.90;;;;;;4974970;28;20391;-80
2023/08/28 15:48:37;;;;;;;;;;;19.50;99.90;;;;;;4974602;28;19972;-79
2023/08/28 15:51:03;;;;;;;;;;;19.40;99.90;;;;;;4976089;28;19969;-77
2023/08/28 15:53:32;;;;;;;;;;;19.30;99.90;;;;;;5007085;28;19930;-77
2023/08/28 15:55:58;;;;;;;;;;;19.20;99.90;;;;;;4975526;28;20455;-79
2023/08/28 15:58:24;;;;;;;;;;;19.30;99.90;;;;;;4975596;28;19965;-78
2023/08/28 16:00:56;;;;;;;;;;;19.30;99.90;;;;;;4974280;28;20005;-78
2023/08/28 16:03:21;;;;;;;;;;;19.30;99.90;;;;;;4975809;28;19977;-77
2023/08/28 16:05:47;;;;;;;;;;;19.30;99.90;;;;;;4974541;28;19972;-79
2023/08/28 16:08:13;;;;;;;;;;;19.30;99.90;;;;;;4976174;28;19922;-78
2023/08/28 16:10:38;;;;;;;;;;;19.30;99.90;;;;;;4974351;28;19922;-78
2023/08/28 16:13:04;;;;;;;;;;;19.20;99.90;;;;;;4974318;28;20342;-78
2023/08/28 16:15:30;;;;;;;;;;;19.20;99.90;;;;;;4975516;28;19961;-77
2023/08/28 16:17:55;;;;;;;;;;;19.20;99.90;;;;;;4975497;28;19922;-79
2023/08/28 16:20:21;;;;;;;;;;;19.20;99.90;;;;;;4974299;28;20350;-79
2023/08/28 16:22:46;;;;;;;;;;;19.10;99.90;;;;;;4974201;28;19937;-79
2023/08/28 16:25:13;;;;;;;;;;;19.10;99.90;;;;;;4973907;28;19922;-77
2023/08/28 16:27:43;;;;;;;;;;;19.10;99.90;;;;;;4974009;28;19922;-76
2023/08/28 16:30:09;;;;;;;;;;;19.10;99.90;;;;;;4974130;28;19929;-78
2023/08/28 16:32:35;;;;;;;;;;;19.00;99.90;;;;;;4975162;28;19922;-76
2023/08/28 16:35:00;;;;;;;;;;;19.00;99.90;;;;;;4973963;28;20276;-79
2023/08/28 16:37:26;;;;;;;;;;;19.00;99.90;;;;;;4974012;28;20292;-79
2023/08/28 16:39:52;;;;;;;;;;;19.10;99.90;;;;;;4974208;28;20372;-79
2023/08/28 16:42:18;;;;;;;;;;;19.00;99.90;;;;;;4973909;28;19922;-77
2023/08/28 16:44:44;;;;;;;;;;;19.10;99.90;;;;;;4974162;28;19929;-78
2023/08/28 16:47:10;;;;;;;;;;;19.10;99.90;;;;;;4974070;28;19922;-79
2023/08/28 16:49:35;;;;;;;;;;;19.20;99.90;;;;;;4974128;28;20375;-78
2023/08/28 16:52:01;;;;;;;;;;;19.20;99.90;;;;;;4973941;28;19928;-77
2023/08/28 16:54:27;;;;;;;;;;;19.20;99.90;;;;;;4957573;28;19926;-77
2023/08/28 16:56:52;;;;;;;;;;;19.20;99.90;;;;;;4973541;28;20018;-77
2023/08/28 16:59:18;;;;;;;;;;;19.20;99.90;;;;;;4973578;28;19922;-78
2023/08/28 17:01:43;;;;;;;;;;;19.10;99.90;;;;;;4973581;28;19926;-76
2023/08/28 17:04:09;;;;;;;;;;;19.10;99.90;;;;;;4973551;28;19922;-78
2023/08/28 17:06:35;;;;;;;;;;;19.10;99.90;;;;;;4973596;28;19929;-77
2023/08/28 17:09:00;;;;;;;;;;;19.10;99.90;;;;;;4973799;28;19922;-81
2023/08/28 17:11:26;;;;;;;;;;;19.10;99.90;;;;;;4973277;28;19926;-78